Time;durP1;ratioP1;P1;durP2;ratioP2;P2;SDS_P1;SDS_P2;PMS_P1;PMS_P2;Temp;Humidity;BMP_temperature;BMP_pressure;BME280_temperature;BME280_humidity;BME280_pressure;Samples;Min_cycle;Max_cycle;Signal;HPM_P1;HPM_P2
2022/12/24 00:00:36;;;;;;;39.30;12.38;;;;;;;9.21;100.00;100507.56;5265137;28;20037;-68
2022/12/24 00:03:07;;;;;;;42.57;10.43;;;;;;;9.16;100.00;100506.78;5263911;28;20495;-67
2022/12/24 00:05:39;;;;;;;42.87;10.10;;;;;;;9.15;100.00;100499.88;5265159;28;20113;-67
2022/12/24 00:08:10;;;;;;;37.90;9.50;;;;;;;9.13;100.00;100500.75;5265361;28;20472;-68
2022/12/24 00:10:42;;;;;;;48.40;10.57;;;;;;;9.17;100.00;100514.56;5265282;28;20072;-68
2022/12/24 00:13:13;;;;;;;34.63;9.32;;;;;;;9.14;100.00;100512.00;5265274;28;20037;-67
2022/12/24 00:15:45;;;;;;;41.57;9.80;;;;;;;9.13;100.00;100507.69;5264975;28;20032;-67
2022/12/24 00:18:17;;;;;;;41.78;10.10;;;;;;;9.14;100.00;100506.78;5264839;28;20152;-68
2022/12/24 00:20:49;;;;;;;38.33;8.37;;;;;;;9.15;100.00;100510.28;5264888;28;20211;-67
2022/12/24 00:23:20;;;;;;;46.25;9.80;;;;;;;9.07;100.00;100519.00;5264706;28;20481;-72
2022/12/24 00:25:52;;;;;;;41.67;11.53;;;;;;;9.04;100.00;100518.19;5265101;28;20162;-68
2022/12/24 00:28:23;;;;;;;37.93;9.50;;;;;;;9.00;100.00;100519.06;5264532;28;20037;-68
2022/12/24 00:30:54;;;;;;;40.07;10.87;;;;;;;9.04;100.00;100526.84;5264478;28;20411;-67
2022/12/24 00:33:26;;;;;;;35.10;8.50;;;;;;;9.05;100.00;100520.75;5264437;28;20480;-67
2022/12/24 00:35:57;;;;;;;41.00;10.73;;;;;;;9.12;100.00;100529.34;5264742;28;20025;-67
2022/12/24 00:38:29;;;;;;;35.53;9.83;;;;;;;9.18;100.00;100529.28;5264536;28;20029;-68
2022/12/24 00:41:02;;;;;;;38.27;8.47;;;;;;;9.17;100.00;100531.91;5264738;28;20033;-67
2022/12/24 00:43:33;;;;;;;36.58;9.57;;;;;;;9.15;100.00;100546.69;5264388;28;20025;-67
2022/12/24 00:46:05;;;;;;;40.77;11.30;;;;;;;9.16;100.00;100549.25;5264491;28;20047;-67
2022/12/24 00:48:36;;;;;;;40.97;10.13;;;;;;;9.15;100.00;100549.28;5264371;28;20203;-67
2022/12/24 00:51:07;;;;;;;37.47;9.63;;;;;;;9.11;100.00;100564.91;5264023;28;20114;-68
2022/12/24 00:53:39;;;;;;;38.60;11.07;;;;;;;9.12;100.00;100565.75;5263462;28;20368;-68
2022/12/24 00:56:10;;;;;;;40.73;9.77;;;;;;;9.14;100.00;100569.19;5264170;28;20153;-68
2022/12/24 00:58:42;;;;;;;41.27;9.77;;;;;;;9.08;100.00;100564.94;5263780;28;20131;-68
2022/12/24 01:01:13;;;;;;;40.87;10.03;;;;;;;9.13;100.00;100563.16;5264120;28;20036;-67
2022/12/24 01:03:46;;;;;;;39.33;11.53;;;;;;;9.05;100.00;100580.56;5262820;28;20468;-67
2022/12/24 01:06:20;;;;;;;35.58;9.93;;;;;;;9.05;100.00;100584.91;5263848;28;20029;-67
2022/12/24 01:08:51;;;;;;;31.67;9.40;;;;;;;8.98;100.00;100576.28;5263895;28;20032;-68
2022/12/24 01:11:22;;;;;;;35.60;9.47;;;;;;;8.97;100.00;100576.31;5262865;28;20384;-68
2022/12/24 01:13:54;;;;;;;37.97;10.50;;;;;;;8.87;100.00;100572.94;5264189;28;20029;-68
2022/12/24 01:16:26;;;;;;;40.03;8.73;;;;;;;8.83;100.00;100572.09;5263848;28;20087;-68
2022/12/24 01:18:57;;;;;;;35.37;10.07;;;;;;;8.83;100.00;100584.25;5263589;28;20143;-68
2022/12/24 01:21:28;;;;;;;46.17;11.47;;;;;;;8.90;100.00;100593.69;5263808;28;20491;-68
2022/12/24 01:24:00;;;;;;;37.07;10.87;;;;;;;8.84;100.00;100588.53;5263447;28;20472;-68
2022/12/24 01:26:31;;;;;;;32.50;10.87;;;;;;;8.86;100.00;100605.88;5263465;28;20069;-67
2022/12/24 01:29:03;;;;;;;38.17;10.53;;;;;;;8.74;100.00;100598.16;5263364;28;20025;-67
2022/12/24 01:31:34;;;;;;;33.47;10.43;;;;;;;8.67;100.00;100601.69;5263494;28;20389;-68
2022/12/24 01:34:06;;;;;;;41.60;11.00;;;;;;;8.65;100.00;100606.06;5263482;28;20040;-67
2022/12/24 01:36:37;;;;;;;32.10;9.17;;;;;;;8.56;100.00;100606.97;5263381;28;20033;-68
2022/12/24 01:39:09;;;;;;;36.27;8.93;;;;;;;8.55;100.00;100606.13;5262344;28;20040;-67
2022/12/24 01:44:42;;;;;;;42.97;10.45;;;;;;;8.51;100.00;100611.34;5252639;28;20044;-67
2022/12/24 01:47:23;;;;;;;43.08;11.95;;;;;;;8.46;100.00;100623.50;5263078;28;20021;-67
2022/12/24 01:49:56;;;;;;;47.47;11.30;;;;;;;8.49;100.00;100624.34;5263022;28;20024;-68
2022/12/24 01:52:34;;;;;;;37.17;10.48;;;;;;;8.51;100.00;100629.53;5263201;28;20021;-68
2022/12/24 01:55:18;;;;;;;33.67;9.35;;;;;;;8.51;100.00;100622.59;5262831;28;20031;-67
2022/12/24 01:57:56;;;;;;;45.35;10.77;;;;;;;8.56;100.00;100625.16;5263172;28;20049;-68
2022/12/24 02:00:27;;;;;;;33.22;10.88;;;;;;;8.53;100.00;100619.97;5263085;28;20036;-69
2022/12/24 02:02:59;;;;;;;48.17;12.10;;;;;;;8.53;100.00;100631.25;5261019;28;20037;-67
2022/12/24 02:05:47;;;;;;;44.27;10.60;;;;;;;8.51;100.00;100640.78;5263218;28;20059;-68
2022/12/24 02:08:19;;;;;;;42.30;10.95;;;;;;;8.56;100.00;100644.22;5262485;28;20064;-68
2022/12/24 02:10:50;;;;;;;38.40;9.43;;;;;;;8.55;100.00;100639.91;5262585;28;20067;-68
2022/12/24 02:13:22;;;;;;;35.43;9.23;;;;;;;8.60;100.00;100649.38;5262649;28;20094;-67
2022/12/24 02:16:05;;;;;;;42.03;10.00;;;;;;;8.66;100.00;100652.81;5262623;28;20025;-67
2022/12/24 02:18:53;;;;;;;40.72;11.50;;;;;;;8.73;100.00;100653.63;5262564;28;20024;-67
2022/12/24 02:21:46;;;;;;;35.22;9.45;;;;;;;8.76;100.00;100653.63;5262464;28;20033;-67
2022/12/24 02:24:22;;;;;;;41.83;9.57;;;;;;;8.75;100.00;100655.31;5262151;28;20033;-68
2022/12/24 02:27:13;;;;;;;41.67;11.43;;;;;;;8.80;100.00;100654.44;5262392;28;20035;-67
2022/12/24 02:30:22;;;;;;;42.60;9.82;;;;;;;8.82;100.00;100657.88;5262730;28;20372;-67
2022/12/24 02:33:24;;;;;;;45.92;11.82;;;;;;;8.81;100.00;100658.78;5261005;28;20040;-68
2022/12/24 02:36:17;;;;;;;42.60;10.13;;;;;;;8.87;100.00;100666.50;5262317;28;20033;-68
2022/12/24 02:38:57;;;;;;;34.20;10.32;;;;;;;8.94;100.00;100668.19;5262358;28;20036;-67
2022/12/24 02:44:35;;;;;;;40.15;9.15;;;;;;;8.98;100.00;100663.84;5262505;28;20049;-68
2022/12/24 02:47:08;;;;;;;44.75;10.68;;;;;;;8.93;100.00;100669.94;5262015;28;20032;-68
2022/12/24 02:49:44;;;;;;;47.40;11.90;;;;;;;8.98;100.00;100669.88;5262032;28;20476;-68
2022/12/24 02:52:32;;;;;;;42.20;10.50;;;;;;;8.95;100.00;100667.31;5262154;28;20466;-68
2022/12/24 02:55:11;;;;;;;41.88;8.98;;;;;;;8.93;100.00;100669.06;5262243;28;20033;-68
2022/12/24 02:57:55;;;;;;;47.17;11.18;;;;;;;8.93;100.00;100663.88;5261858;28;20377;-68
2022/12/24 03:00:39;;;;;;;45.22;10.27;;;;;;;8.95;100.00;100672.50;5262054;28;20024;-68
2022/12/24 03:03:11;;;;;;;29.98;9.20;;;;;;;8.95;100.00;100667.31;5262341;28;20029;-68
2022/12/24 03:05:54;;;;;;;43.10;10.40;;;;;;;8.95;100.00;100669.91;5261983;28;20080;-68
2022/12/24 03:08:28;;;;;;;46.17;9.63;;;;;;;8.96;100.00;100668.19;5262154;28;20348;-68
2022/12/24 03:11:07;;;;;;;39.10;9.88;;;;;;;8.99;100.00;100671.63;5262295;28;20025;-68
2022/12/24 03:13:41;;;;;;;40.35;9.95;;;;;;;8.98;100.00;100679.44;5263644;28;20104;-68
2022/12/24 03:16:18;;;;;;;44.28;9.45;;;;;;;9.03;100.00;100685.44;5265937;28;20419;-68
2022/12/24 03:18:51;;;;;;;36.28;9.57;;;;;;;9.09;100.00;100682.81;5267017;28;20087;-68
2022/12/24 03:21:38;;;;;;;38.28;9.40;;;;;;;9.09;100.00;100681.06;5265912;28;20033;-68
2022/12/24 03:24:10;;;;;;;35.85;10.05;;;;;;;9.13;100.00;100682.78;5265802;28;20068;-68
2022/12/24 03:26:43;;;;;;;32.83;8.67;;;;;;;9.13;100.00;100687.13;5265913;28;20147;-68
2022/12/24 03:29:16;;;;;;;36.65;8.75;;;;;;;9.15;100.00;100677.56;5266219;28;20036;-68
2022/12/24 03:31:49;;;;;;;;;;;;;;;9.19;100.00;100691.38;5266689;28;20029;-68
2022/12/24 03:34:20;;;;;;;38.50;10.75;;;;;;;9.18;100.00;100697.50;5265636;28;19913;-68
2022/12/24 03:36:51;;;;;;;38.67;8.43;;;;;;;9.23;100.00;100693.97;5266464;28;20056;-68
2022/12/24 03:39:23;;;;;;;29.13;9.97;;;;;;;9.24;100.00;100689.59;5265961;28;20094;-68
2022/12/24 03:41:54;;;;;;;38.27;10.13;;;;;;;9.19;100.00;100687.03;5248201;28;20090;-68
2022/12/24 03:44:26;;;;;;;36.80;9.67;;;;;;;9.21;100.00;100705.22;5265943;28;20112;-68
2022/12/24 03:46:57;;;;;;;36.20;9.10;;;;;;;9.22;100.00;100696.56;5265517;28;20496;-68
2022/12/24 03:49:28;;;;;;;29.20;9.10;;;;;;;9.22;100.00;100707.81;5264036;28;20048;-68
2022/12/24 03:52:00;;;;;;;32.43;8.10;;;;;;;9.22;100.00;100702.63;5264026;28;20021;-68
2022/12/24 03:54:31;;;;;;;34.03;9.43;;;;;;;9.23;100.00;100701.75;5265379;28;20098;-68
2022/12/24 03:57:02;;;;;;;34.47;10.07;;;;;;;9.24;100.00;100703.50;5265285;28;20036;-68
2022/12/24 03:59:34;;;;;;;32.37;9.07;;;;;;;9.26;100.00;100716.50;5265694;28;20084;-68
2022/12/24 04:02:05;;;;;;;33.73;8.33;;;;;;;9.22;100.00;100713.03;5265299;28;20033;-68
2022/12/24 04:04:37;;;;;;;32.30;9.13;;;;;;;9.24;100.00;100710.41;5265322;28;20091;-68
2022/12/24 04:07:08;;;;;;;39.07;9.80;;;;;;;9.17;100.00;100714.81;5265246;28;20067;-68
2022/12/24 04:09:39;;;;;;;26.80;7.13;;;;;;;9.17;100.00;100713.97;5265147;28;20054;-68
2022/12/24 04:12:11;;;;;;;26.43;7.13;;;;;;;9.12;100.00;100704.44;5263802;28;20033;-69
2022/12/24 04:14:42;;;;;;;31.10;10.00;;;;;;;9.12;100.00;100717.44;5265046;28;20032;-68
2022/12/24 04:17:13;;;;;;;29.90;9.33;;;;;;;9.13;100.00;100708.78;5263960;28;20514;-68
2022/12/24 04:19:45;;;;;;;28.17;9.27;;;;;;;9.11;100.00;100720.06;5264756;28;20037;-68
2022/12/24 04:22:16;;;;;;;38.37;10.53;;;;;;;9.08;100.00;100726.16;5264825;28;20040;-69
2022/12/24 04:24:48;;;;;;;33.20;9.00;;;;;;;9.12;100.00;100714.00;5264668;28;20029;-68
2022/12/24 04:27:19;;;;;;;31.37;9.53;;;;;;;9.07;100.00;100731.38;5264892;28;20029;-68
2022/12/24 04:29:51;;;;;;;34.80;9.13;;;;;;;9.15;100.00;100731.31;5264675;28;20037;-68
2022/12/24 04:32:24;;;;;;;39.80;9.50;;;;;;;9.21;100.00;100731.25;5265124;28;20029;-68
2022/12/24 04:34:56;;;;;;;34.40;9.75;;;;;;;9.14;100.00;100730.44;5264595;28;20474;-68
2022/12/24 04:37:27;;;;;;;33.13;9.27;;;;;;;9.19;100.00;100740.81;5264210;28;20051;-68
2022/12/24 04:39:59;;;;;;;36.33;9.90;;;;;;;9.15;100.00;100737.38;5264395;28;20040;-68
2022/12/24 04:42:30;;;;;;;31.83;8.87;;;;;;;9.13;100.00;100741.72;5264373;28;20029;-68
2022/12/24 04:45:01;;;;;;;33.83;9.60;;;;;;;9.09;100.00;100734.81;5264498;28;20427;-68
2022/12/24 04:47:33;;;;;;;32.53;8.43;;;;;;;9.00;100.00;100738.34;5264598;28;20032;-68
2022/12/24 04:50:05;;;;;;;32.43;8.93;;;;;;;8.99;100.00;100736.63;5264422;28;20061;-68
2022/12/24 04:52:36;;;;;;;33.70;9.73;;;;;;;8.90;100.00;100724.56;5264809;28;20486;-68
2022/12/24 04:55:08;;;;;;;36.23;8.93;;;;;;;8.90;100.00;100731.47;5264131;28;20037;-70
2022/12/24 04:57:39;;;;;;;38.67;9.47;;;;;;;8.94;100.00;100746.19;5264143;28;20103;-68
2022/12/24 05:00:11;;;;;;;36.33;9.67;;;;;;;8.92;100.00;100747.94;5264112;28;20025;-68
2022/12/24 05:02:42;;;;;;;34.83;8.23;;;;;;;8.93;100.00;100739.25;5264141;28;20037;-68
2022/12/24 05:05:14;;;;;;;36.73;8.67;;;;;;;8.92;100.00;100754.00;5264195;28;20264;-68
2022/12/24 05:07:45;;;;;;;35.20;7.47;;;;;;;8.95;100.00;100753.09;5264278;28;20036;-68
2022/12/24 05:10:17;;;;;;;31.93;8.97;;;;;;;8.96;100.00;100757.44;5264380;28;20036;-69
2022/12/24 05:12:48;;;;;;;41.87;8.70;;;;;;;8.98;100.00;100762.63;5264131;28;20078;-68
2022/12/24 05:15:19;;;;;;;33.93;9.00;;;;;;;8.98;100.00;100755.69;5263654;28;20128;-68
2022/12/24 05:17:51;;;;;;;32.87;8.40;;;;;;;9.00;100.00;100756.56;5263786;28;20472;-67
2022/12/24 05:20:22;;;;;;;43.10;10.53;;;;;;;9.03;100.00;100758.25;5263352;28;20487;-69
2022/12/24 05:28:33;;;;;;;32.47;8.55;;;;;;;8.93;100.00;100758.34;5263830;28;20037;-68
2022/12/24 05:31:05;;;;;;;36.37;7.67;;;;;;;8.92;100.00;100755.75;5262708;28;20037;-68
2022/12/24 05:33:36;;;;;;;43.80;8.10;;;;;;;8.94;100.00;100751.41;5263689;28;20055;-69
2022/12/24 05:36:08;;;;;;;33.97;8.43;;;;;;;8.86;100.00;100748.84;5262496;28;20508;-68
2022/12/24 05:38:39;;;;;;;35.93;9.97;;;;;;;8.83;100.00;100755.78;5264123;28;20029;-68
2022/12/24 05:41:11;;;;;;;35.03;8.63;;;;;;;8.81;100.00;100758.41;5263607;28;20029;-68
2022/12/24 05:43:42;;;;;;;35.33;8.90;;;;;;;8.80;100.00;100754.06;5263197;28;20385;-68
2022/12/24 05:46:17;;;;;;;29.27;8.80;;;;;;;8.79;100.00;100764.47;5263425;28;20021;-68
2022/12/24 05:48:50;;;;;;;32.53;8.40;;;;;;;8.76;100.00;100770.56;5262795;28;20041;-68
2022/12/24 05:51:22;;;;;;;36.50;11.30;;;;;;;8.72;100.00;100774.91;5263248;28;20448;-69
2022/12/24 05:53:53;;;;;;;36.72;9.23;;;;;;;8.81;100.00;100793.94;5263324;28;20041;-68
2022/12/24 05:56:25;;;;;;;38.93;9.10;;;;;;;8.84;100.00;100791.28;5262936;28;20055;-68
2022/12/24 05:58:57;;;;;;;28.77;8.30;;;;;;;8.85;100.00;100787.84;5263211;28;20095;-68
2022/12/24 06:01:28;;;;;;;32.77;8.30;;;;;;;8.82;100.00;100788.69;5262649;28;20287;-68
2022/12/24 06:04:01;;;;;;;35.43;8.17;;;;;;;8.79;100.00;100791.34;5262870;28;20040;-68
2022/12/24 06:06:32;;;;;;;38.80;10.38;;;;;;;8.75;100.00;100793.06;5262895;28;20029;-68
2022/12/24 06:09:04;;;;;;;32.07;9.07;;;;;;;8.80;100.00;100797.41;5263202;28;20530;-69
2022/12/24 06:11:35;;;;;;;30.23;8.43;;;;;;;8.80;100.00;100792.19;5262999;28;20452;-68
2022/12/24 06:14:06;;;;;;;42.17;10.23;;;;;;;8.72;100.00;100794.84;5262373;28;20025;-68
2022/12/24 06:16:38;;;;;;;35.93;8.13;;;;;;;8.71;100.00;100793.97;5262639;28;20141;-68
2022/12/24 06:19:09;;;;;;;28.60;9.33;;;;;;;8.65;100.00;100788.81;5263088;28;20059;-68
2022/12/24 06:21:40;;;;;;;36.97;9.83;;;;;;;8.64;100.00;100796.59;5262562;28;20494;-68
2022/12/24 06:24:12;;;;;;;35.43;10.63;;;;;;;8.61;100.00;100799.22;5262376;28;20029;-68
2022/12/24 06:26:43;;;;;;;37.77;8.90;;;;;;;8.65;100.00;100800.94;5262279;28;20060;-68
2022/12/24 06:29:14;;;;;;;41.43;9.53;;;;;;;8.59;100.00;100799.22;5262363;28;20392;-68
2022/12/24 06:31:46;;;;;;;34.67;9.93;;;;;;;8.56;100.00;100805.31;5261079;28;20478;-68
2022/12/24 06:34:17;;;;;;;37.53;10.53;;;;;;;8.59;100.00;100812.22;5262397;28;20071;-68
2022/12/24 06:36:48;;;;;;;33.73;9.10;;;;;;;8.54;100.00;100821.78;5262534;28;20033;-68
2022/12/24 06:39:20;;;;;;;33.03;8.50;;;;;;;8.44;100.00;100815.75;5262286;28;20036;-68
2022/12/24 06:41:51;;;;;;;39.33;10.03;;;;;;;8.43;100.00;100824.41;5262383;28;20056;-68
2022/12/24 06:44:23;;;;;;;32.57;9.00;;;;;;;8.44;100.00;100820.94;5261858;28;20029;-68
2022/12/24 06:46:54;;;;;;;31.07;10.33;;;;;;;8.43;100.00;100819.19;5262347;28;20040;-68
2022/12/24 06:49:26;;;;;;;35.97;10.87;;;;;;;8.44;100.00;100827.88;5262721;28;20091;-68
2022/12/24 06:51:57;;;;;;;36.70;11.00;;;;;;;8.52;100.00;100820.91;5262196;28;20044;-69
2022/12/24 06:54:28;;;;;;;39.57;10.40;;;;;;;8.55;100.00;100823.50;5262444;28;20124;-68
2022/12/24 06:57:00;;;;;;;39.20;10.63;;;;;;;8.62;100.00;100840.78;5262135;28;20126;-68
2022/12/24 06:59:31;;;;;;;43.00;9.80;;;;;;;8.69;100.00;100833.81;5262585;28;20135;-66
2022/12/24 07:02:03;;;;;;;34.53;10.10;;;;;;;8.68;100.00;100840.78;5262117;28;20036;-67
2022/12/24 07:04:34;;;;;;;35.50;9.23;;;;;;;8.63;100.00;100839.94;5262262;28;20033;-66
2022/12/24 07:07:05;;;;;;;40.63;9.37;;;;;;;8.54;100.00;100842.56;5261755;28;20530;-67
2022/12/24 07:09:37;;;;;;;36.87;9.90;;;;;;;8.54;100.00;100838.22;5261447;28;20057;-66
2022/12/24 07:12:08;;;;;;;41.60;10.93;;;;;;;8.47;100.00;100841.72;5261964;28;20041;-67
2022/12/24 07:14:39;;;;;;;37.70;9.10;;;;;;;8.42;100.00;100840.84;5262347;28;20490;-67
2022/12/24 07:17:11;;;;;;;33.60;8.73;;;;;;;8.36;100.00;100849.50;5262002;28;20036;-67
2022/12/24 07:19:42;;;;;;;38.87;11.10;;;;;;;8.31;100.00;100842.59;5262209;28;20055;-68
2022/12/24 07:22:13;;;;;;;40.80;11.83;;;;;;;8.39;100.00;100839.09;5261878;28;20071;-66
2022/12/24 07:24:45;;;;;;;40.17;10.30;;;;;;;8.36;100.00;100857.28;5262403;28;20040;-67
2022/12/24 07:27:16;;;;;;;41.77;9.50;;;;;;;8.29;100.00;100857.31;5261897;28;20060;-68
2022/12/24 07:29:48;;;;;;;40.57;11.00;;;;;;;8.24;100.00;100857.31;5261875;28;20036;-67
2022/12/24 07:32:19;;;;;;;40.40;9.17;;;;;;;8.25;100.00;100864.25;5261694;28;20072;-67
2022/12/24 07:34:51;;;;;;;35.10;10.90;;;;;;;8.25;100.00;100879.81;5262316;28;20029;-67
2022/12/24 07:37:22;;;;;;;36.13;8.37;;;;;;;8.20;100.00;100885.03;5261398;28;20158;-67
2022/12/24 07:39:53;;;;;;;38.93;11.67;;;;;;;8.17;100.00;100877.22;5261554;28;20376;-67
2022/12/24 07:42:25;;;;;;;44.97;8.97;;;;;;;8.09;100.00;100878.97;5261681;28;20033;-68
2022/12/24 07:44:56;;;;;;;46.47;11.73;;;;;;;8.02;100.00;100880.72;5261684;28;20166;-67
2022/12/24 07:47:28;;;;;;;38.67;10.93;;;;;;;8.08;100.00;100885.03;5261902;28;20033;-69
2022/12/24 07:49:59;;;;;;;40.13;9.23;;;;;;;8.12;100.00;100885.91;5261554;28;20040;-68
2022/12/24 07:52:31;;;;;;;38.67;9.77;;;;;;;8.13;100.00;100892.81;5261214;28;20099;-69
2022/12/24 07:55:02;;;;;;;40.60;11.33;;;;;;;8.21;100.00;100904.94;5261990;28;20144;-67
2022/12/24 07:57:34;;;;;;;39.33;10.87;;;;;;;8.22;100.00;100913.59;5260864;28;20083;-68
2022/12/24 08:00:06;;;;;;;48.60;11.63;;;;;;;8.20;100.00;100916.19;5261467;28;20397;-67
2022/12/24 08:02:37;;;;;;;37.67;10.98;;;;;;;8.28;100.00;100920.53;5264873;28;20116;-67
2022/12/24 08:05:08;;;;;;;45.37;10.33;;;;;;;8.36;100.00;100924.81;5264715;28;20041;-67
2022/12/24 08:07:40;;;;;;;40.40;9.30;;;;;;;8.38;100.00;100930.03;5247054;28;20029;-67
2022/12/24 08:10:11;;;;;;;44.47;10.67;;;;;;;8.44;100.00;100935.25;5264651;28;20064;-66
2022/12/24 08:12:44;;;;;;;37.10;11.90;;;;;;;8.46;100.00;100937.84;5264749;28;20372;-66
2022/12/24 08:15:16;;;;;;;;;;;;;;;8.43;100.00;100948.19;5264617;28;20113;-68
2022/12/24 08:17:47;;;;;;;34.47;9.73;;;;;;;8.34;100.00;100949.06;5264230;28;20371;-67
2022/12/24 08:20:18;;;;;;;36.63;9.80;;;;;;;8.29;100.00;100946.50;5264352;28;20306;-67
2022/12/24 08:22:50;;;;;;;38.83;10.03;;;;;;;8.31;100.00;100944.75;5264764;28;20476;-66
2022/12/24 08:25:21;;;;;;;39.23;10.10;;;;;;;8.37;100.00;100952.53;5264283;28;20033;-66
2022/12/24 08:27:52;;;;;;;38.40;9.90;;;;;;;8.45;100.00;100962.94;5264457;28;20033;-66
2022/12/24 08:30:24;;;;;;;40.33;11.43;;;;;;;8.47;100.00;100961.22;5264799;28;20033;-67
2022/12/24 08:32:55;;;;;;;41.90;10.03;;;;;;;8.51;100.00;100965.53;5264371;28;20429;-66
2022/12/24 08:35:27;;;;;;;40.30;11.57;;;;;;;8.59;100.00;100965.53;5262819;28;20037;-67
2022/12/24 08:37:58;;;;;;;34.83;10.80;;;;;;;8.64;100.00;100968.97;5263953;28;20144;-67
2022/12/24 08:40:30;;;;;;;48.30;12.37;;;;;;;8.68;100.00;100969.84;5264391;28;20021;-67
2022/12/24 08:43:01;;;;;;;34.03;8.93;;;;;;;8.64;100.00;100974.16;5264073;28;20036;-67
2022/12/24 08:45:33;;;;;;;41.67;11.40;;;;;;;8.70;100.00;100970.72;5264041;28;20083;-67
2022/12/24 08:48:06;;;;;;;37.80;9.23;;;;;;;8.77;100.00;100980.22;5264196;28;20061;-67
2022/12/24 08:50:38;;;;;;;;;;;;;;;8.78;100.00;100981.94;5264587;28;20029;-67
2022/12/24 08:53:10;;;;;;;35.58;8.75;;;;;;;8.76;100.00;100986.28;5263826;28;19931;-67
2022/12/24 08:55:41;;;;;;;46.77;11.17;;;;;;;8.69;100.00;100988.00;5263933;28;20049;-68
2022/12/24 08:58:14;;;;;;;39.58;11.38;;;;;;;8.69;100.00;100992.34;5263992;28;20052;-67
2022/12/24 09:00:45;;;;;;;35.83;10.93;;;;;;;8.67;100.00;100983.72;5263771;28;20049;-68
2022/12/24 09:03:16;;;;;;;53.23;11.13;;;;;;;8.67;100.00;100994.97;5263851;28;20085;-69
2022/12/24 09:05:48;;;;;;;41.17;9.60;;;;;;;8.65;100.00;100996.69;5263715;28;20032;-67
2022/12/24 09:08:20;;;;;;;42.27;11.50;;;;;;;8.61;100.00;100994.09;5263612;28;20465;-68
2022/12/24 09:10:51;;;;;;;37.33;9.40;;;;;;;8.57;100.00;101009.69;5263587;28;20033;-68
2022/12/24 09:13:22;;;;;;;35.70;9.97;;;;;;;8.63;100.00;101010.56;5263314;28;20044;-67
2022/12/24 09:15:54;;;;;;;42.43;10.93;;;;;;;8.66;100.00;101010.53;5264233;28;20033;-68
2022/12/24 09:18:26;;;;;;;40.13;11.57;;;;;;;8.69;100.00;101029.59;5262866;28;20076;-67
2022/12/24 09:21:03;;;;;;;36.58;9.25;;;;;;;8.75;100.00;101023.53;5263756;28;20060;-68
2022/12/24 09:23:39;;;;;;;44.15;11.60;;;;;;;8.87;100.00;101041.72;5263630;28;20128;-67
2022/12/24 09:26:21;;;;;;;37.38;9.93;;;;;;;8.94;100.00;101048.63;5263106;28;20368;-67
2022/12/24 09:28:52;;;;;;;42.10;12.25;;;;;;;9.00;100.00;101045.16;5263675;28;20064;-68
2022/12/24 09:31:24;;;;;;;53.37;12.23;;;;;;;9.16;100.00;101046.00;5263673;28;20468;-68
2022/12/24 09:33:55;;;;;;;39.60;9.10;;;;;;;9.36;100.00;101039.88;5263243;28;20095;-68
2022/12/24 09:36:26;;;;;;;42.37;11.23;;;;;;;9.36;100.00;101051.13;5263372;28;20033;-68
2022/12/24 09:38:58;;;;;;;46.70;11.17;;;;;;;9.43;100.00;101042.41;5263041;28;20064;-69
2022/12/24 09:41:57;;;;;;;45.33;11.37;;;;;;;9.46;100.00;101054.56;5262988;28;20037;-68
2022/12/24 09:44:45;;;;;;;31.40;9.10;;;;;;;9.46;100.00;101050.22;5262983;28;20103;-67
2022/12/24 09:47:38;;;;;;;43.63;9.60;;;;;;;9.50;100.00;101056.28;5263463;28;20102;-66
2022/12/24 09:50:51;;;;;;;40.42;9.90;;;;;;;9.54;100.00;101058.00;5263249;28;20467;-66
2022/12/24 09:53:31;;;;;;;31.40;8.88;;;;;;;9.47;100.00;101075.38;5261948;28;20036;-67
2022/12/24 09:56:12;;;;;;;42.28;10.82;;;;;;;9.43;100.00;101071.03;5262573;28;20032;-67
2022/12/24 09:59:01;;;;;;;36.40;10.32;;;;;;;9.44;100.00;101077.97;5262107;28;20053;-68
2022/12/24 10:01:33;;;;;;;40.28;11.95;;;;;;;9.42;100.00;101091.88;5260956;28;20037;-69
2022/12/24 10:04:17;;;;;;;38.95;10.73;;;;;;;9.42;100.00;101084.94;5261128;28;20033;-69
2022/12/24 10:07:32;;;;;;;43.13;11.18;;;;;;;9.44;100.00;101091.00;5262827;28;20025;-68
2022/12/24 10:10:32;;;;;;;35.38;10.07;;;;;;;9.40;100.00;101096.22;5247144;28;20047;-68
2022/12/24 10:13:31;;;;;;;40.20;9.43;;;;;;;9.39;100.00;101091.91;5246855;28;20052;-68
2022/12/24 10:16:08;;;;;;;43.10;10.45;;;;;;;9.42;100.00;101089.28;5262807;28;20352;-68
2022/12/24 10:19:21;;;;;;;38.30;10.52;;;;;;;9.47;100.00;101095.34;5262597;28;20025;-67
2022/12/24 10:22:12;;;;;;;50.67;11.98;;;;;;;9.51;100.00;101077.97;5261742;28;20059;-66
2022/12/24 10:25:19;;;;;;;31.58;9.68;;;;;;;9.57;100.00;101085.75;5260798;28;20045;-68
2022/12/24 10:27:54;;;;;;;42.92;9.48;;;;;;;9.59;100.00;101084.00;5250683;28;20037;-68
2022/12/24 10:30:25;;;;;;;37.83;10.70;;;;;;;9.73;100.00;101081.34;5262749;28;20094;-68
2022/12/24 10:32:57;;;;;;;40.10;12.40;;;;;;;9.82;100.00;101079.56;5262272;28;20033;-68
2022/12/24 10:35:35;;;;;;;38.73;11.17;;;;;;;10.03;100.00;101082.94;5261357;28;20117;-68
2022/12/24 10:38:07;;;;;;;36.70;9.38;;;;;;;10.14;100.00;101086.34;5262455;28;20029;-68
2022/12/24 10:40:46;;;;;;;30.98;8.38;;;;;;;10.08;100.00;101095.91;5262455;28;20061;-68
2022/12/24 10:43:24;;;;;;;41.90;10.55;;;;;;;10.00;100.00;101088.16;5261655;28;20025;-68
2022/12/24 10:46:12;;;;;;;42.65;11.35;;;;;;;9.93;100.00;101094.25;5261933;28;20472;-69
2022/12/24 10:49:07;;;;;;;37.92;10.60;;;;;;;9.92;100.00;101095.13;5262013;28;20032;-68
2022/12/24 10:52:04;;;;;;;40.88;9.75;;;;;;;9.92;100.00;101090.81;5262022;28;20044;-69
2022/12/24 10:54:38;;;;;;;43.72;11.60;;;;;;;9.96;100.00;101095.09;5262283;28;20033;-68
2022/12/24 10:57:24;;;;;;;36.10;9.45;;;;;;;9.95;100.00;101093.41;5261005;28;20107;-70
2022/12/24 10:59:56;;;;;;;35.38;9.95;;;;;;;10.15;100.00;101087.19;5261803;28;20025;-68
2022/12/24 11:02:34;;;;;;;37.07;10.37;;;;;;;10.34;100.00;101101.00;5261675;28;20044;-69
2022/12/24 11:05:29;;;;;;;34.50;9.38;;;;;;;10.62;100.00;101099.06;5261630;28;20025;-68
2022/12/24 11:08:21;;;;;;;41.00;12.15;;;;;;;10.58;100.00;101102.56;5261574;28;20033;-68
2022/12/24 11:10:54;;;;;;;37.08;11.05;;;;;;;10.46;100.00;101098.31;5261285;28;20068;-68
2022/12/24 11:13:35;;;;;;;33.83;9.20;;;;;;;10.37;100.00;101098.38;5261324;28;20075;-68
2022/12/24 11:16:24;;;;;;;31.38;9.40;;;;;;;10.28;100.00;101103.63;5261899;28;20473;-68
2022/12/24 11:18:58;;;;;;;32.75;10.23;;;;;;;10.32;100.00;101105.31;5262346;28;20380;-68
2022/12/24 11:21:32;;;;;;;32.60;9.90;;;;;;;10.38;100.00;101101.00;5261481;28;20506;-68
2022/12/24 11:24:12;;;;;;;30.30;10.18;;;;;;;10.37;100.00;101096.63;5262126;28;20040;-68
2022/12/24 11:26:44;;;;;;;36.13;10.73;;;;;;;10.47;100.00;101099.19;5262031;28;20059;-68
2022/12/24 11:29:27;;;;;;;28.43;8.33;;;;;;;10.63;100.00;101115.59;5261452;28;20060;-68
2022/12/24 11:32:16;;;;;;;33.70;10.85;;;;;;;10.68;100.00;101112.03;5260856;28;20163;-69
2022/12/24 11:34:48;;;;;;;33.13;9.75;;;;;;;10.64;100.00;101118.19;5262852;28;20037;-68
2022/12/24 11:37:22;;;;;;;39.23;10.53;;;;;;;10.62;100.00;101113.84;5264711;28;20036;-68
2022/12/24 11:39:56;;;;;;;34.30;10.35;;;;;;;10.62;100.00;101116.44;5265147;28;20029;-69
2022/12/24 11:42:37;;;;;;;34.55;10.45;;;;;;;10.56;100.00;101117.34;5265236;28;20080;-69
2022/12/24 11:45:23;;;;;;;29.63;9.40;;;;;;;10.40;99.94;101127.91;5264704;28;20021;-67
2022/12/24 11:47:55;;;;;;;31.42;9.48;;;;;;;10.44;100.00;101135.69;5265261;28;20086;-69
2022/12/24 11:50:57;;;;;;;31.50;9.38;;;;;;;10.46;99.51;101128.72;5264784;28;20060;-69
2022/12/24 11:53:47;;;;;;;32.10;8.45;;;;;;;10.48;99.92;101132.19;5264902;28;20101;-68
2022/12/24 11:56:36;;;;;;;37.97;9.75;;;;;;;10.49;100.00;101129.56;5263636;28;20082;-68
2022/12/24 11:59:25;;;;;;;29.63;9.88;;;;;;;10.56;98.88;101126.06;5265582;28;20049;-69
2022/12/24 12:02:21;;;;;;;30.35;10.00;;;;;;;10.60;97.78;101126.88;5265053;28;20433;-68